sensor_id;sensor_type;location;lat;lon;timestamp;P1;durP1;ratioP1;P2;durP2;ratioP2
13933;SDS011;7039;52.168;9.866;2024-03-08T09:47:56;36.90;;;19.43;;
13933;SDS011;7039;52.168;9.866;2024-03-08T09:51:08;39.13;;;20.50;;
13933;SDS011;7039;52.168;9.866;2024-03-08T10:11:21;35.30;;;18.67;;
13933;SDS011;7039;52.168;9.866;2024-03-08T10:18:24;39.00;;;21.07;;
13933;SDS011;7039;52.168;9.866;2024-03-08T10:21:04;34.37;;;20.27;;
13933;SDS011;7039;52.168;9.866;2024-03-08T10:24:19;40.43;;;21.27;;
13933;SDS011;7039;52.168;9.866;2024-03-08T10:33:34;39.60;;;20.20;;
13933;SDS011;7039;52.168;9.866;2024-03-08T10:37:03;33.43;;;19.10;;
13933;SDS011;7039;52.168;9.866;2024-03-08T10:40:06;34.70;;;18.90;;
13933;SDS011;7039;52.168;9.866;2024-03-08T10:45:57;36.80;;;20.87;;
13933;SDS011;7039;52.168;9.866;2024-03-08T10:48:32;37.50;;;20.10;;
13933;SDS011;7039;52.168;9.866;2024-03-08T10:51:17;34.80;;;19.63;;
13933;SDS011;7039;52.168;9.866;2024-03-08T10:54:05;36.30;;;19.73;;
13933;SDS011;7039;52.168;9.866;2024-03-08T10:56:36;38.50;;;21.13;;
13933;SDS011;7039;52.168;9.866;2024-03-08T11:04:23;40.97;;;21.43;;
13933;SDS011;7039;52.168;9.866;2024-03-08T11:06:58;40.37;;;20.73;;
13933;SDS011;7039;52.168;9.866;2024-03-08T11:12:51;34.07;;;18.97;;
13933;SDS011;7039;52.168;9.866;2024-03-08T11:28:31;32.00;;;17.97;;
13933;SDS011;7039;52.168;9.866;2024-03-08T11:33:50;34.53;;;19.13;;
13933;SDS011;7039;52.168;9.866;2024-03-08T11:36:20;36.00;;;20.53;;
13933;SDS011;7039;52.168;9.866;2024-03-08T11:38:48;35.70;;;19.60;;
13933;SDS011;7039;52.168;9.866;2024-03-08T11:41:17;34.77;;;19.97;;
13933;SDS011;7039;52.168;9.866;2024-03-08T11:43:46;38.43;;;19.77;;
13933;SDS011;7039;52.168;9.866;2024-03-08T11:46:13;34.17;;;19.23;;
13933;SDS011;7039;52.168;9.866;2024-03-08T11:48:42;37.67;;;20.47;;
13933;SDS011;7039;52.168;9.866;2024-03-08T11:51:09;34.90;;;20.37;;
13933;SDS011;7039;52.168;9.866;2024-03-08T11:53:41;36.27;;;20.13;;
13933;SDS011;7039;52.168;9.866;2024-03-08T11:56:14;32.57;;;19.33;;
13933;SDS011;7039;52.168;9.866;2024-03-08T11:59:23;33.80;;;19.80;;
13933;SDS011;7039;52.168;9.866;2024-03-08T12:02:01;37.10;;;19.40;;
13933;SDS011;7039;52.168;9.866;2024-03-08T12:04:38;33.20;;;19.47;;
13933;SDS011;7039;52.168;9.866;2024-03-08T12:07:25;31.03;;;19.20;;
13933;SDS011;7039;52.168;9.866;2024-03-08T12:12:43;36.60;;;18.77;;
13933;SDS011;7039;52.168;9.866;2024-03-08T12:15:13;32.70;;;20.00;;
13933;SDS011;7039;52.168;9.866;2024-03-08T12:17:45;36.97;;;20.63;;
13933;SDS011;7039;52.168;9.866;2024-03-08T12:20:17;32.70;;;19.53;;
13933;SDS011;7039;52.168;9.866;2024-03-08T12:22:47;32.23;;;18.97;;
13933;SDS011;7039;52.168;9.866;2024-03-08T12:25:15;33.97;;;19.30;;
13933;SDS011;7039;52.168;9.866;2024-03-08T12:27:42;31.43;;;19.37;;
13933;SDS011;7039;52.168;9.866;2024-03-08T12:30:17;33.77;;;19.97;;
13933;SDS011;7039;52.168;9.866;2024-03-08T12:32:50;37.60;;;20.33;;
13933;SDS011;7039;52.168;9.866;2024-03-08T12:35:20;31.57;;;18.63;;
13933;SDS011;7039;52.168;9.866;2024-03-08T12:37:59;32.07;;;19.73;;
13933;SDS011;7039;52.168;9.866;2024-03-08T12:40:27;31.93;;;19.93;;
13933;SDS011;7039;52.168;9.866;2024-03-08T12:42:56;35.33;;;20.27;;
13933;SDS011;7039;52.168;9.866;2024-03-08T12:45:25;33.73;;;20.23;;
13933;SDS011;7039;52.168;9.866;2024-03-08T12:47:52;35.87;;;20.90;;
13933;SDS011;7039;52.168;9.866;2024-03-08T12:50:19;31.27;;;19.10;;
13933;SDS011;7039;52.168;9.866;2024-03-08T12:52:46;35.07;;;19.93;;
13933;SDS011;7039;52.168;9.866;2024-03-08T12:55:13;37.10;;;21.13;;
13933;SDS011;7039;52.168;9.866;2024-03-08T12:57:41;33.77;;;19.57;;
13933;SDS011;7039;52.168;9.866;2024-03-08T13:00:09;32.67;;;20.67;;
13933;SDS011;7039;52.168;9.866;2024-03-08T13:02:39;33.77;;;20.27;;
13933;SDS011;7039;52.168;9.866;2024-03-08T13:05:07;29.70;;;18.53;;
13933;SDS011;7039;52.168;9.866;2024-03-08T13:07:34;33.00;;;19.03;;
13933;SDS011;7039;52.168;9.866;2024-03-08T13:10:02;33.40;;;19.03;;
13933;SDS011;7039;52.168;9.866;2024-03-08T13:12:30;32.40;;;18.73;;
13933;SDS011;7039;52.168;9.866;2024-03-08T13:14:57;34.63;;;20.47;;
13933;SDS011;7039;52.168;9.866;2024-03-08T13:17:24;32.37;;;19.27;;
13933;SDS011;7039;52.168;9.866;2024-03-08T13:19:52;29.47;;;18.80;;
13933;SDS011;7039;52.168;9.866;2024-03-08T13:22:22;30.27;;;19.20;;
13933;SDS011;7039;52.168;9.866;2024-03-08T13:24:49;34.93;;;19.83;;
13933;SDS011;7039;52.168;9.866;2024-03-08T13:27:17;34.67;;;20.70;;
13933;SDS011;7039;52.168;9.866;2024-03-08T13:29:46;33.23;;;19.10;;
13933;SDS011;7039;52.168;9.866;2024-03-08T13:32:14;32.83;;;19.80;;
13933;SDS011;7039;52.168;9.866;2024-03-08T13:34:41;34.80;;;19.77;;
13933;SDS011;7039;52.168;9.866;2024-03-08T13:37:09;33.73;;;20.00;;
13933;SDS011;7039;52.168;9.866;2024-03-08T13:39:36;34.77;;;20.60;;
13933;SDS011;7039;52.168;9.866;2024-03-08T13:42:08;32.27;;;18.80;;
13933;SDS011;7039;52.168;9.866;2024-03-08T13:44:38;33.83;;;19.67;;
13933;SDS011;7039;52.168;9.866;2024-03-08T13:47:06;32.07;;;19.40;;
13933;SDS011;7039;52.168;9.866;2024-03-08T13:49:32;32.73;;;20.70;;
13933;SDS011;7039;52.168;9.866;2024-03-08T13:51:59;33.17;;;19.73;;
13933;SDS011;7039;52.168;9.866;2024-03-08T13:54:27;32.50;;;19.37;;
13933;SDS011;7039;52.168;9.866;2024-03-08T13:56:56;32.10;;;19.10;;
13933;SDS011;7039;52.168;9.866;2024-03-08T13:59:23;31.87;;;19.77;;
13933;SDS011;7039;52.168;9.866;2024-03-08T14:01:54;35.47;;;20.97;;
13933;SDS011;7039;52.168;9.866;2024-03-08T14:04:21;34.60;;;21.23;;
13933;SDS011;7039;52.168;9.866;2024-03-08T14:09:34;40.90;;;20.30;;
13933;SDS011;7039;52.168;9.866;2024-03-08T14:12:08;31.80;;;19.67;;
13933;SDS011;7039;52.168;9.866;2024-03-08T14:14:38;33.00;;;19.87;;
13933;SDS011;7039;52.168;9.866;2024-03-08T14:17:12;32.10;;;20.50;;
13933;SDS011;7039;52.168;9.866;2024-03-08T14:19:42;31.77;;;19.97;;
13933;SDS011;7039;52.168;9.866;2024-03-08T14:22:09;31.30;;;19.87;;
13933;SDS011;7039;52.168;9.866;2024-03-08T14:24:41;32.13;;;20.07;;
13933;SDS011;7039;52.168;9.866;2024-03-08T14:30:08;33.30;;;20.13;;
13933;SDS011;7039;52.168;9.866;2024-03-08T14:32:42;32.50;;;19.27;;
13933;SDS011;7039;52.168;9.866;2024-03-08T14:38:58;29.53;;;19.10;;
13933;SDS011;7039;52.168;9.866;2024-03-08T14:44:52;32.30;;;20.20;;
13933;SDS011;7039;52.168;9.866;2024-03-08T14:47:29;32.37;;;20.90;;
13933;SDS011;7039;52.168;9.866;2024-03-08T14:50:10;35.83;;;20.17;;
13933;SDS011;7039;52.168;9.866;2024-03-08T14:52:38;34.53;;;20.43;;
13933;SDS011;7039;52.168;9.866;2024-03-08T14:55:08;34.17;;;20.83;;
13933;SDS011;7039;52.168;9.866;2024-03-08T14:57:49;35.87;;;22.00;;
13933;SDS011;7039;52.168;9.866;2024-03-08T15:00:21;36.70;;;21.47;;
13933;SDS011;7039;52.168;9.866;2024-03-08T15:03:02;34.03;;;20.30;;
13933;SDS011;7039;52.168;9.866;2024-03-08T15:05:33;32.10;;;21.00;;
13933;SDS011;7039;52.168;9.866;2024-03-08T15:08:05;30.70;;;20.93;;
13933;SDS011;7039;52.168;9.866;2024-03-08T15:10:45;34.20;;;22.17;;
13933;SDS011;7039;52.168;9.866;2024-03-08T15:13:16;35.13;;;22.77;;
13933;SDS011;7039;52.168;9.866;2024-03-08T15:15:50;45.73;;;28.43;;
13933;SDS011;7039;52.168;9.866;2024-03-08T15:18:20;33.33;;;21.43;;
13933;SDS011;7039;52.168;9.866;2024-03-08T15:20:59;34.70;;;23.20;;
13933;SDS011;7039;52.168;9.866;2024-03-08T15:31:20;31.07;;;19.73;;
13933;SDS011;7039;52.168;9.866;2024-03-08T15:33:53;37.03;;;19.90;;
13933;SDS011;7039;52.168;9.866;2024-03-08T15:36:49;33.20;;;20.27;;
13933;SDS011;7039;52.168;9.866;2024-03-08T15:42:37;34.27;;;19.73;;
13933;SDS011;7039;52.168;9.866;2024-03-08T15:45:20;33.07;;;20.43;;
13933;SDS011;7039;52.168;9.866;2024-03-08T15:47:59;28.67;;;18.73;;
13933;SDS011;7039;52.168;9.866;2024-03-08T15:51:10;32.03;;;19.90;;
13933;SDS011;7039;52.168;9.866;2024-03-08T15:53:46;30.80;;;19.43;;
13933;SDS011;7039;52.168;9.866;2024-03-08T15:56:25;30.87;;;19.47;;
13933;SDS011;7039;52.168;9.866;2024-03-08T15:59:22;30.97;;;19.20;;
13933;SDS011;7039;52.168;9.866;2024-03-08T17:42:44;60.10;;;29.33;;
13933;SDS011;7039;52.168;9.866;2024-03-08T18:24:43;38.00;;;18.90;;
13933;SDS011;7039;52.168;9.866;2024-03-08T18:29:57;43.28;;;24.70;;
13933;SDS011;7039;52.168;9.866;2024-03-08T18:32:47;35.23;;;18.27;;
13933;SDS011;7039;52.168;9.866;2024-03-08T18:35:14;36.70;;;19.67;;
13933;SDS011;7039;52.168;9.866;2024-03-08T18:48:17;48.43;;;26.60;;
13933;SDS011;7039;52.168;9.866;2024-03-08T19:01:48;29.33;;;16.10;;
13933;SDS011;7039;52.168;9.866;2024-03-08T19:04:29;30.23;;;16.23;;
13933;SDS011;7039;52.168;9.866;2024-03-08T19:07:01;31.23;;;16.30;;
13933;SDS011;7039;52.168;9.866;2024-03-08T19:09:29;30.67;;;15.87;;
13933;SDS011;7039;52.168;9.866;2024-03-08T19:28:42;33.57;;;16.10;;
13933;SDS011;7039;52.168;9.866;2024-03-08T19:32:02;32.60;;;15.97;;
13933;SDS011;7039;52.168;9.866;2024-03-08T19:34:30;31.00;;;16.07;;
13933;SDS011;7039;52.168;9.866;2024-03-08T19:37:01;32.90;;;16.33;;
13933;SDS011;7039;52.168;9.866;2024-03-08T19:39:28;31.00;;;15.03;;
13933;SDS011;7039;52.168;9.866;2024-03-08T19:44:44;24.37;;;13.33;;
13933;SDS011;7039;52.168;9.866;2024-03-08T19:47:21;26.70;;;13.90;;
13933;SDS011;7039;52.168;9.866;2024-03-08T19:57:37;24.13;;;12.70;;
13933;SDS011;7039;52.168;9.866;2024-03-08T20:05:54;23.93;;;12.13;;
13933;SDS011;7039;52.168;9.866;2024-03-08T20:11:46;23.13;;;12.43;;
13933;SDS011;7039;52.168;9.866;2024-03-08T20:14:51;22.57;;;12.57;;
13933;SDS011;7039;52.168;9.866;2024-03-08T20:31:03;22.63;;;12.77;;
13933;SDS011;7039;52.168;9.866;2024-03-08T20:33:30;23.37;;;13.33;;
13933;SDS011;7039;52.168;9.866;2024-03-08T20:35:57;28.60;;;14.20;;
13933;SDS011;7039;52.168;9.866;2024-03-08T20:38:24;21.63;;;11.93;;
13933;SDS011;7039;52.168;9.866;2024-03-08T20:40:52;27.87;;;12.87;;
13933;SDS011;7039;52.168;9.866;2024-03-08T20:43:19;25.43;;;13.00;;
13933;SDS011;7039;52.168;9.866;2024-03-08T20:45:46;24.70;;;14.43;;
13933;SDS011;7039;52.168;9.866;2024-03-08T20:48:15;25.37;;;13.53;;
13933;SDS011;7039;52.168;9.866;2024-03-08T20:50:44;26.87;;;13.47;;
13933;SDS011;7039;52.168;9.866;2024-03-08T20:53:10;32.70;;;13.73;;
13933;SDS011;7039;52.168;9.866;2024-03-08T20:55:38;28.10;;;13.37;;
13933;SDS011;7039;52.168;9.866;2024-03-08T20:58:07;27.40;;;14.10;;
13933;SDS011;7039;52.168;9.866;2024-03-08T21:08:44;26.20;;;13.53;;
13933;SDS011;7039;52.168;9.866;2024-03-08T21:11:42;23.87;;;13.20;;
13933;SDS011;7039;52.168;9.866;2024-03-08T21:15:07;30.80;;;14.07;;
13933;SDS011;7039;52.168;9.866;2024-03-08T21:20:14;29.87;;;14.20;;
13933;SDS011;7039;52.168;9.866;2024-03-08T21:22:54;26.00;;;14.37;;
13933;SDS011;7039;52.168;9.866;2024-03-08T21:25:21;32.80;;;16.90;;
13933;SDS011;7039;52.168;9.866;2024-03-08T21:27:58;27.43;;;13.90;;
13933;SDS011;7039;52.168;9.866;2024-03-08T21:33:04;28.63;;;13.70;;
13933;SDS011;7039;52.168;9.866;2024-03-08T21:35:35;25.73;;;14.07;;
13933;SDS011;7039;52.168;9.866;2024-03-08T21:38:04;60.47;;;28.47;;
13933;SDS011;7039;52.168;9.866;2024-03-08T21:40:32;28.33;;;15.50;;
13933;SDS011;7039;52.168;9.866;2024-03-08T21:43:00;26.60;;;14.13;;
13933;SDS011;7039;52.168;9.866;2024-03-08T21:45:28;27.30;;;14.97;;
13933;SDS011;7039;52.168;9.866;2024-03-08T21:47:57;32.97;;;15.77;;
13933;SDS011;7039;52.168;9.866;2024-03-08T21:50:34;28.10;;;15.57;;
13933;SDS011;7039;52.168;9.866;2024-03-08T21:53:01;30.63;;;15.07;;
13933;SDS011;7039;52.168;9.866;2024-03-08T21:55:33;34.50;;;16.07;;
13933;SDS011;7039;52.168;9.866;2024-03-08T21:58:01;28.27;;;15.30;;
13933;SDS011;7039;52.168;9.866;2024-03-08T22:00:29;33.30;;;15.77;;
13933;SDS011;7039;52.168;9.866;2024-03-08T22:02:57;30.90;;;16.30;;
13933;SDS011;7039;52.168;9.866;2024-03-08T22:05:26;30.00;;;16.30;;
13933;SDS011;7039;52.168;9.866;2024-03-08T22:07:56;30.97;;;16.57;;
13933;SDS011;7039;52.168;9.866;2024-03-08T22:10:23;28.20;;;15.67;;
13933;SDS011;7039;52.168;9.866;2024-03-08T22:12:52;30.53;;;16.90;;
13933;SDS011;7039;52.168;9.866;2024-03-08T22:15:20;30.53;;;15.37;;
13933;SDS011;7039;52.168;9.866;2024-03-08T22:17:47;33.67;;;16.40;;
13933;SDS011;7039;52.168;9.866;2024-03-08T22:20:15;31.37;;;16.43;;
13933;SDS011;7039;52.168;9.866;2024-03-08T22:22:46;32.07;;;16.43;;
13933;SDS011;7039;52.168;9.866;2024-03-08T22:25:22;34.67;;;15.37;;
13933;SDS011;7039;52.168;9.866;2024-03-08T22:27:50;31.50;;;16.70;;
13933;SDS011;7039;52.168;9.866;2024-03-08T22:30:21;34.47;;;17.33;;
13933;SDS011;7039;52.168;9.866;2024-03-08T22:32:50;27.90;;;16.20;;
13933;SDS011;7039;52.168;9.866;2024-03-08T22:35:20;34.07;;;17.37;;
13933;SDS011;7039;52.168;9.866;2024-03-08T22:37:48;29.60;;;16.47;;
13933;SDS011;7039;52.168;9.866;2024-03-08T22:40:18;36.27;;;18.17;;
13933;SDS011;7039;52.168;9.866;2024-03-08T22:42:48;32.07;;;18.30;;
13933;SDS011;7039;52.168;9.866;2024-03-08T22:45:19;35.20;;;17.50;;
13933;SDS011;7039;52.168;9.866;2024-03-08T22:47:48;35.23;;;18.67;;
13933;SDS011;7039;52.168;9.866;2024-03-08T22:50:15;37.87;;;19.87;;
13933;SDS011;7039;52.168;9.866;2024-03-08T22:52:43;37.27;;;18.83;;
13933;SDS011;7039;52.168;9.866;2024-03-08T22:55:12;34.40;;;19.13;;
13933;SDS011;7039;52.168;9.866;2024-03-08T22:57:43;34.87;;;20.17;;
13933;SDS011;7039;52.168;9.866;2024-03-08T23:00:13;35.50;;;19.73;;
13933;SDS011;7039;52.168;9.866;2024-03-08T23:02:55;35.27;;;18.37;;
13933;SDS011;7039;52.168;9.866;2024-03-08T23:05:23;33.40;;;19.40;;
13933;SDS011;7039;52.168;9.866;2024-03-08T23:07:52;38.70;;;20.43;;
13933;SDS011;7039;52.168;9.866;2024-03-08T23:10:18;39.93;;;19.70;;
13933;SDS011;7039;52.168;9.866;2024-03-08T23:12:54;39.53;;;20.27;;
13933;SDS011;7039;52.168;9.866;2024-03-08T23:15:24;40.77;;;21.37;;
13933;SDS011;7039;52.168;9.866;2024-03-08T23:18:03;36.13;;;19.90;;
13933;SDS011;7039;52.168;9.866;2024-03-08T23:20:35;32.23;;;19.07;;
13933;SDS011;7039;52.168;9.866;2024-03-08T23:23:02;37.53;;;21.00;;
13933;SDS011;7039;52.168;9.866;2024-03-08T23:25:30;36.03;;;21.23;;
13933;SDS011;7039;52.168;9.866;2024-03-08T23:27:59;41.27;;;22.53;;
13933;SDS011;7039;52.168;9.866;2024-03-08T23:30:27;34.50;;;20.77;;
13933;SDS011;7039;52.168;9.866;2024-03-08T23:33:07;41.80;;;21.47;;
13933;SDS011;7039;52.168;9.866;2024-03-08T23:35:37;37.93;;;22.03;;
13933;SDS011;7039;52.168;9.866;2024-03-08T23:38:04;37.50;;;21.07;;
13933;SDS011;7039;52.168;9.866;2024-03-08T23:40:42;37.47;;;21.00;;
13933;SDS011;7039;52.168;9.866;2024-03-08T23:43:13;37.33;;;20.87;;
13933;SDS011;7039;52.168;9.866;2024-03-08T23:45:42;40.70;;;22.43;;
13933;SDS011;7039;52.168;9.866;2024-03-08T23:48:12;42.23;;;21.60;;
13933;SDS011;7039;52.168;9.866;2024-03-08T23:50:39;42.87;;;21.60;;
13933;SDS011;7039;52.168;9.866;2024-03-08T23:53:07;44.80;;;22.67;;
13933;SDS011;7039;52.168;9.866;2024-03-08T23:55:35;41.00;;;25.23;;
13933;SDS011;7039;52.168;9.866;2024-03-08T23:58:03;43.40;;;23.50;;
